Time;durP1;ratioP1;P1;durP2;ratioP2;P2;SDS_P1;SDS_P2;PMS_P1;PMS_P2;Temp;Humidity;BMP_temperature;BMP_pressure;BME280_temperature;BME280_humidity;BME280_pressure;Samples;Min_cycle;Max_cycle;Signal;HPM_P1;HPM_P2
2023/06/02 00:01:23;;;;;;;;;9.00;8.00;;;;;22.49;41.87;100631.30;110241;1265;22438;-41
2023/06/02 00:03:53;;;;;;;;;11.00;9.00;;;;;22.49;41.78;100629.87;110248;1264;19591;-40
2023/06/02 00:06:21;;;;;;;;;9.00;8.00;;;;;22.49;41.82;100631.52;110273;1251;22929;-40
2023/06/02 00:08:48;;;;;;;;;8.00;8.00;;;;;22.49;41.86;100627.72;110222;1251;20201;-40
2023/06/02 00:11:16;;;;;;;;;7.00;7.00;;;;;22.49;41.96;100626.38;110213;1264;18615;-40
2023/06/02 00:13:43;;;;;;;;;9.00;9.00;;;;;22.49;41.92;100626.21;110199;1265;19622;-39
2023/06/02 00:16:12;;;;;;;;;11.00;8.00;;;;;22.49;41.72;100626.58;110236;1251;19662;-39
2023/06/02 00:18:40;;;;;;;;;8.00;8.00;;;;;22.49;41.91;100629.11;110167;1265;22086;-40
2023/06/02 00:21:08;;;;;;;;;8.00;7.00;;;;;22.49;41.88;100629.28;110263;1251;20776;-39
2023/06/02 00:23:35;;;;;;;;;7.50;7.50;;;;;22.49;41.91;100633.81;110207;1265;18827;-44
2023/06/02 00:26:03;;;;;;;;;8.00;7.00;;;;;22.49;41.89;100627.30;110195;1251;20183;-40
2023/06/02 00:28:30;;;;;;;;;7.00;7.00;;;;;22.49;42.00;100636.21;110241;1264;20938;-39
2023/06/02 00:30:58;;;;;;;;;9.00;8.00;;;;;22.49;41.91;100635.12;110212;1264;18368;-42
2023/06/02 00:33:25;;;;;;;;;7.50;7.00;;;;;22.49;41.98;100634.95;110188;1265;18599;-39
2023/06/02 00:35:53;;;;;;;;;7.50;7.00;;;;;22.49;42.02;100638.02;110200;1251;21052;-40
2023/06/02 00:38:20;;;;;;;;;7.00;7.00;;;;;22.49;41.79;100635.50;110192;1265;19617;-38
2023/06/02 00:40:48;;;;;;;;;8.00;8.00;;;;;22.48;42.02;100638.30;110210;1265;18770;-40
2023/06/02 00:43:16;;;;;;;;;9.00;9.00;;;;;22.48;41.90;100641.62;110252;1265;22081;-41
2023/06/02 00:45:44;;;;;;;;;8.00;7.00;;;;;22.46;41.94;100644.36;110251;1250;19551;-39
2023/06/02 00:48:11;;;;;;;;;7.00;7.00;;;;;22.47;42.00;100649.16;110239;1251;22825;-40
2023/06/02 00:50:39;;;;;;;;;7.00;5.00;;;;;22.47;42.09;100650.30;110216;1251;21122;-39
2023/06/02 00:53:06;;;;;;;;;7.00;7.00;;;;;22.45;42.07;100648.94;110277;1264;19600;-40
2023/06/02 00:55:34;;;;;;;;;11.00;8.00;;;;;22.40;42.23;100643.98;109935;1265;395963;-40
2023/06/02 00:58:03;;;;;;;;;7.50;7.00;;;;;22.41;42.34;100645.36;110214;1265;22168;-39
2023/06/02 01:00:36;;;;;;;;;8.00;7.00;;;;;22.42;42.37;100642.72;110193;1265;18651;-39
2023/06/02 01:03:04;;;;;;;;;8.00;8.00;;;;;22.41;42.63;100648.26;110184;1264;21701;-40
2023/06/02 01:05:31;;;;;;;;;5.00;5.00;;;;;22.41;42.76;100651.77;110242;1265;20521;-40
2023/06/02 01:08:00;;;;;;;;;5.00;5.00;;;;;22.41;42.93;100653.92;110199;1265;19561;-40
2023/06/02 01:10:28;;;;;;;;;7.00;7.00;;;;;22.39;43.15;100655.28;110235;1259;19944;-40
2023/06/02 01:12:56;;;;;;;;;5.00;5.00;;;;;22.35;43.22;100655.98;110218;1261;22249;-40
2023/06/02 01:15:23;;;;;;;;;7.00;7.00;;;;;22.32;43.32;100661.41;110197;1257;20539;-41
2023/06/02 01:17:51;;;;;;;;;5.00;5.00;;;;;22.31;43.45;100653.67;110213;1250;18651;-39
2023/06/02 01:20:21;;;;;;;;;5.00;5.00;;;;;22.29;43.46;100654.52;110253;1250;21796;-40
2023/06/02 01:22:48;;;;;;;;;5.00;5.00;;;;;22.26;43.31;100654.48;110258;1249;18678;-40
2023/06/02 01:25:16;;;;;;;;;5.00;5.00;;;;;22.28;43.27;100656.50;110211;1251;20053;-42
2023/06/02 01:27:43;;;;;;;;;5.00;5.00;;;;;22.26;42.93;100664.43;110280;1265;19410;-40
2023/06/02 01:30:11;;;;;;;;;7.00;7.00;;;;;22.24;42.96;100665.36;110262;1265;19742;-41
2023/06/02 01:32:39;;;;;;;;;5.00;5.00;;;;;22.22;42.62;100669.88;110238;1264;20286;-41
2023/06/02 01:35:06;;;;;;;;;7.00;7.00;;;;;22.24;42.65;100676.09;110222;1264;23265;-45
2023/06/02 01:37:34;;;;;;;;;5.00;5.00;;;;;22.24;42.44;100677.13;110208;1265;18582;-41
2023/06/02 01:40:03;;;;;;;;;6.00;5.00;;;;;22.25;42.31;100678.16;110163;1251;20204;-40
2023/06/02 01:42:31;;;;;;;;;5.00;5.00;;;;;22.24;42.17;100677.42;110220;1260;20747;-41
2023/06/02 01:45:00;;;;;;;;;4.50;4.50;;;;;22.18;41.96;100677.77;110205;1251;22690;-41
2023/06/02 01:47:27;;;;;;;;;5.00;5.00;;;;;22.21;41.95;100680.91;110170;1265;18606;-42
2023/06/02 01:49:55;;;;;;;;;7.00;7.00;;;;;22.24;41.98;100683.52;110210;1249;19371;-41
2023/06/02 01:52:22;;;;;;;;;6.00;6.00;;;;;22.24;41.85;100681.61;110233;1265;18778;-41
2023/06/02 01:54:50;;;;;;;;;5.00;5.00;;;;;22.22;41.64;100686.63;110183;1266;22095;-39
2023/06/02 01:57:18;;;;;;;;;8.00;7.00;;;;;22.22;41.59;100690.66;110240;1266;19978;-40
2023/06/02 01:59:46;;;;;;;;;4.00;4.00;;;;;22.21;41.57;100691.27;110214;1249;21556;-39
2023/06/02 02:02:13;;;;;;;;;2.00;2.00;;;;;22.22;41.42;100693.26;110159;1265;22347;-40
2023/06/02 02:04:41;;;;;;;;;3.00;3.00;;;;;22.21;41.14;100696.45;110205;1265;19708;-40
2023/06/02 02:07:13;;;;;;;;;4.00;4.00;;;;;22.20;40.90;100701.55;110226;1249;22654;-39
2023/06/02 02:09:42;;;;;;;;;4.00;4.00;;;;;22.17;40.89;100705.13;110170;1257;23823;-40
2023/06/02 02:12:09;;;;;;;;;4.00;4.00;;;;;22.17;40.84;100704.48;110226;1251;20983;-40
2023/06/02 02:14:37;;;;;;;;;4.00;4.00;;;;;22.15;40.75;100712.65;110211;1264;18477;-41
2023/06/02 02:17:05;;;;;;;;;4.00;4.00;;;;;22.12;40.71;100706.44;110195;1250;20091;-39
2023/06/02 02:19:32;;;;;;;;;2.00;2.00;;;;;22.12;40.43;100705.14;110160;1266;22060;-40
2023/06/02 02:21:59;;;;;;;;;2.00;2.00;;;;;22.12;40.22;100708.87;110117;1249;19569;-40
2023/06/02 02:24:27;;;;;;;;;4.00;2.00;;;;;22.11;40.32;100710.20;110129;1264;18843;-41
2023/06/02 02:26:55;;;;;;;;;3.33;2.00;;;;;22.10;40.01;100711.91;110122;1251;22836;-40
2023/06/02 02:29:23;;;;;;;;;4.00;2.00;;;;;22.11;39.88;100712.24;110235;1265;19790;-40
2023/06/02 02:31:50;;;;;;;;;3.00;2.00;;;;;22.12;39.88;100712.61;110209;1249;20227;-39
2023/06/02 02:34:19;;;;;;;;;2.00;2.00;;;;;22.11;39.74;100717.91;110194;1265;20864;-40
2023/06/02 02:36:48;;;;;;;;;2.00;2.00;;;;;22.12;39.62;100716.64;110082;1266;22210;-40
2023/06/02 02:39:15;;;;;;;;;2.00;2.00;;;;;22.12;39.48;100712.79;110132;1251;20070;-44
2023/06/02 02:41:43;;;;;;;;;4.00;4.00;;;;;22.12;39.58;100710.11;110218;1251;20729;-40
2023/06/02 02:44:10;;;;;;;;;9.00;8.00;;;;;22.12;39.46;100708.30;110131;1264;18156;-40
2023/06/02 02:46:38;;;;;;;;;4.00;4.00;;;;;22.11;39.40;100713.10;110229;1264;22648;-41
2023/06/02 02:49:06;;;;;;;;;5.00;4.00;;;;;22.12;39.43;100712.98;110227;1265;21054;-40
2023/06/02 02:51:34;;;;;;;;;4.00;4.00;;;;;22.12;39.38;100708.29;110172;1265;22290;-40
2023/06/02 02:54:02;;;;;;;;;4.00;4.00;;;;;22.11;39.27;100711.80;110228;1251;20163;-39
2023/06/02 02:56:30;;;;;;;;;4.00;4.00;;;;;22.10;39.16;100710.52;110234;1251;20675;-39
2023/06/02 02:58:57;;;;;;;;;4.00;4.00;;;;;22.11;39.11;100714.98;110221;1251;22187;-40
2023/06/02 03:01:26;;;;;;;;;2.00;2.00;;;;;22.10;39.12;100718.84;110253;1264;19979;-39
2023/06/02 03:03:54;;;;;;;;;3.00;3.00;;;;;22.09;39.16;100719.52;110213;1250;20840;-39
2023/06/02 03:06:22;;;;;;;;;2.00;2.00;;;;;22.09;39.22;100729.48;110191;1264;19572;-39
2023/06/02 03:08:49;;;;;;;;;2.00;2.00;;;;;22.09;39.02;100728.77;110232;1265;18694;-40
2023/06/02 03:11:17;;;;;;;;;2.00;2.00;;;;;22.09;39.09;100729.02;110217;1264;20805;-40
2023/06/02 03:13:44;;;;;;;;;5.00;4.00;;;;;22.07;39.16;100730.31;110182;1261;22306;-40
2023/06/02 03:16:12;;;;;;;;;2.00;2.00;;;;;22.05;38.92;100726.75;110281;1264;18662;-40
2023/06/02 03:18:39;;;;;;;;;2.00;2.00;;;;;22.04;39.07;100732.66;110222;1251;19280;-39
2023/06/02 03:21:07;;;;;;;;;4.00;2.00;;;;;22.06;39.00;100735.95;110275;1250;19583;-40
2023/06/02 03:23:36;;;;;;;;;2.00;2.00;;;;;22.04;38.95;100731.02;110210;1265;20964;-40
2023/06/02 03:26:03;;;;;;;;;4.50;4.00;;;;;22.04;38.88;100737.84;110256;1265;22091;-40
2023/06/02 03:28:31;;;;;;;;;4.50;2.00;;;;;22.03;39.15;100735.74;110259;1265;18549;-40
2023/06/02 03:30:58;;;;;;;;;2.00;2.00;;;;;22.03;39.07;100737.88;110240;1251;20374;-41
2023/06/02 03:33:26;;;;;;;;;4.00;2.00;;;;;22.04;38.87;100740.13;110252;1264;19437;-40
2023/06/02 03:35:53;;;;;;;;;2.00;2.00;;;;;22.04;38.92;100741.66;110293;1249;18515;-40
2023/06/02 03:38:21;;;;;;;;;2.00;2.00;;;;;22.02;38.90;100736.58;110242;1265;21873;-40
2023/06/02 03:40:48;;;;;;;;;4.00;2.67;;;;;22.02;38.76;100746.98;110225;1250;21195;-39
2023/06/02 03:43:16;;;;;;;;;4.00;4.00;;;;;22.00;38.94;100745.52;110241;1265;18415;-41
2023/06/02 03:45:45;;;;;;;;;2.00;2.00;;;;;22.00;39.01;100743.92;110264;1249;19986;-40
2023/06/02 03:48:12;;;;;;;;;2.00;2.00;;;;;22.00;38.90;100745.46;110215;1265;20709;-41
2023/06/02 03:50:41;;;;;;;;;2.00;2.00;;;;;21.99;38.94;100744.61;110231;1251;22057;-40
2023/06/02 03:53:08;;;;;;;;;4.00;2.00;;;;;22.00;38.95;100746.69;110184;1251;20057;-40
2023/06/02 03:55:36;;;;;;;;;2.00;2.00;;;;;22.00;38.98;100747.70;110240;1265;20843;-40
2023/06/02 03:58:03;;;;;;;;;2.00;2.00;;;;;21.98;38.73;100743.05;110216;1251;20161;-41
2023/06/02 04:00:30;;;;;;;;;2.00;2.00;;;;;21.98;38.88;100751.40;110244;1257;23061;-41
2023/06/02 04:02:59;;;;;;;;;2.00;2.00;;;;;21.98;38.83;100751.23;110263;1265;20685;-42
2023/06/02 04:05:26;;;;;;;;;4.00;4.00;;;;;21.97;39.08;100757.52;110272;1249;19928;-47
2023/06/02 04:07:54;;;;;;;;;4.00;2.00;;;;;21.97;39.06;100753.91;110288;1265;21824;-41
2023/06/02 04:10:21;;;;;;;;;5.00;4.00;;;;;21.98;39.00;100758.78;110217;1266;20776;-39
2023/06/02 04:12:49;;;;;;;;;2.00;2.00;;;;;21.98;39.02;100756.35;110236;1264;18533;-40
2023/06/02 04:15:16;;;;;;;;;4.00;4.00;;;;;21.97;39.03;100756.64;110210;1265;18653;-40
2023/06/02 04:17:44;;;;;;;;;2.00;2.00;;;;;21.97;38.89;100753.06;110262;1251;20976;-39
2023/06/02 04:20:12;;;;;;;;;2.00;2.00;;;;;21.97;38.95;100759.70;110215;1265;18517;-39
2023/06/02 04:22:39;;;;;;;;;4.00;4.00;;;;;21.96;38.92;100759.52;110204;1265;22635;-39
2023/06/02 04:25:07;;;;;;;;;2.00;2.00;;;;;21.55;39.49;100758.79;110211;1265;21049;-41
2023/06/02 04:27:34;;;;;;;;;4.00;4.00;;;;;21.28;39.69;100762.70;110235;1250;22364;-40
2023/06/02 04:30:02;;;;;;;;;3.00;3.00;;;;;21.14;39.95;100764.85;110215;1251;20075;-41
2023/06/02 04:32:30;;;;;;;;;2.00;2.00;;;;;20.99;40.33;100764.28;110172;1249;20702;-39
2023/06/02 04:34:58;;;;;;;;;4.00;4.00;;;;;20.99;40.64;100769.02;110249;1264;18292;-41
2023/06/02 04:37:26;;;;;;;;;5.00;5.00;;;;;21.01;40.57;100770.58;110229;1250;20109;-40
2023/06/02 04:39:55;;;;;;;;;5.00;4.00;;;;;20.93;40.65;100771.66;110308;1257;20678;-41
2023/06/02 04:42:22;;;;;;;;;5.00;4.00;;;;;20.95;40.41;100775.36;110222;1264;18581;-41
2023/06/02 04:44:51;;;;;;;;;4.00;4.00;;;;;20.96;40.58;100775.98;110207;1265;20560;-40
2023/06/02 04:47:18;;;;;;;;;4.50;4.00;;;;;21.01;40.51;100779.27;110142;1250;22056;-40
2023/06/02 04:49:46;;;;;;;;;4.00;4.00;;;;;20.93;40.65;100778.38;110207;1265;18800;-40
2023/06/02 04:52:13;;;;;;;;;7.00;5.00;;;;;20.81;41.18;100778.33;110206;1250;19511;-41
2023/06/02 04:54:41;;;;;;;;;5.00;4.00;;;;;20.81;41.50;100776.83;110266;1265;19469;-40
2023/06/02 04:57:08;;;;;;;;;6.00;6.00;;;;;20.83;41.53;100777.60;110263;1260;18297;-40
2023/06/02 04:59:36;;;;;;;;;5.00;4.00;;;;;20.67;41.98;100776.33;110198;1265;20783;-39
2023/06/02 05:02:04;;;;;;;;;5.00;5.00;;;;;20.80;41.94;100775.36;110153;1264;19676;-40
2023/06/02 05:04:31;;;;;;;;;7.00;4.00;;;;;20.80;41.89;100778.30;110296;1265;21431;-40
2023/06/02 05:06:58;;;;;;;;;5.00;5.00;;;;;20.67;42.13;100781.91;110268;1265;22290;-40
2023/06/02 05:09:26;;;;;;;;;5.00;5.00;;;;;20.64;42.25;100783.22;110193;1265;21029;-42
2023/06/02 05:11:54;;;;;;;;;8.00;8.00;;;;;20.41;42.70;100791.71;110188;1264;20184;-40
2023/06/02 05:14:21;;;;;;;;;9.33;7.00;;;;;20.40;42.98;100791.73;110187;1265;18692;-39
2023/06/02 05:16:49;;;;;;;;;7.00;7.00;;;;;20.88;42.30;100793.89;110232;1264;21021;-39
2023/06/02 05:19:16;;;;;;;;;8.00;7.00;;;;;21.26;41.61;100798.87;110267;1264;19656;-41
2023/06/02 05:21:43;;;;;;;;;5.00;4.33;;;;;21.47;41.34;100801.56;110213;1266;18903;-40
2023/06/02 05:24:11;;;;;;;;;4.00;4.00;;;;;21.59;41.25;100803.73;110205;1257;22780;-38
2023/06/02 05:26:38;;;;;;;;;45.00;30.50;;;;;21.69;41.35;100807.31;110265;1265;19489;-39
2023/06/02 05:29:06;;;;;;;;;10.00;8.00;;;;;21.76;41.32;100807.60;110225;1251;22635;-38
2023/06/02 05:31:33;;;;;;;;;32.50;27.00;;;;;21.73;41.02;100812.45;110263;1250;20978;-38
2023/06/02 05:34:01;;;;;;;;;53.00;43.00;;;;;21.72;41.15;100809.67;110208;1265;18769;-39
2023/06/02 05:36:28;;;;;;;;;24.00;23.00;;;;;21.74;41.07;100811.30;110249;1257;18774;-38
2023/06/02 05:38:56;;;;;;;;;33.50;30.00;;;;;21.74;41.21;100815.45;110220;1265;19561;-43
2023/06/02 05:41:24;;;;;;;;;31.00;20.00;;;;;21.75;41.31;100817.66;110209;1265;19963;-38
2023/06/02 05:43:52;;;;;;;;;14.67;12.00;;;;;21.77;41.32;100821.14;110217;1259;21467;-39
2023/06/02 05:46:19;;;;;;;;;17.00;15.00;;;;;21.69;41.39;100823.30;110242;1251;19430;-39
2023/06/02 05:48:47;;;;;;;;;11.00;10.50;;;;;21.69;41.38;100826.14;110253;1251;19670;-40
2023/06/02 05:51:14;;;;;;;;;9.00;9.00;;;;;21.74;41.20;100827.55;110224;1265;20072;-39
2023/06/02 05:53:42;;;;;;;;;12.00;10.00;;;;;21.79;41.31;100827.98;110220;1264;19566;-40
2023/06/02 05:56:09;;;;;;;;;8.00;7.00;;;;;21.81;41.14;100828.64;110245;1265;18425;-39
2023/06/02 05:58:37;;;;;;;;;14.33;8.00;;;;;21.84;41.07;100834.11;110238;1260;20918;-40
2023/06/02 06:01:04;;;;;;;;;7.00;5.00;;;;;21.86;40.96;100834.56;110199;1265;19645;-39
2023/06/02 06:03:32;;;;;;;;;7.00;7.00;;;;;21.59;41.15;100840.89;110264;1264;18576;-41
2023/06/02 06:05:59;;;;;;;;;10.33;5.00;;;;;20.98;41.75;100846.27;110221;1265;19365;-40
2023/06/02 06:08:27;;;;;;;;;5.00;5.00;;;;;20.55;42.34;100850.84;110168;1265;19786;-41
2023/06/02 06:10:54;;;;;;;;;10.00;7.00;;;;;20.35;42.84;100857.60;110232;1265;18790;-40
2023/06/02 06:13:22;;;;;;;;;5.00;5.00;;;;;20.15;43.03;100859.28;110213;1257;18682;-41
2023/06/02 06:15:49;;;;;;;;;7.00;5.00;;;;;20.00;43.40;100864.17;110200;1265;19486;-40
2023/06/02 06:18:19;;;;;;;;;4.00;4.00;;;;;19.94;43.37;100865.27;110208;1265;19888;-41
2023/06/02 06:20:46;;;;;;;;;4.00;4.00;;;;;19.90;43.34;100868.59;110264;1250;21767;-42
2023/06/02 06:23:14;;;;;;;;;6.00;6.00;;;;;19.91;43.46;100865.94;110178;1265;21886;-40
2023/06/02 06:25:41;;;;;;;;;6.00;6.00;;;;;19.88;43.27;100870.63;110201;1265;18256;-45
2023/06/02 06:28:09;;;;;;;;;4.00;4.00;;;;;19.89;43.53;100876.84;110171;1265;19855;-40
2023/06/02 06:30:39;;;;;;;;;8.00;6.00;;;;;19.99;43.35;100879.02;110197;1265;20927;-41
2023/06/02 06:33:07;;;;;;;;;6.00;4.00;;;;;20.01;43.29;100884.27;110281;1266;19582;-41
2023/06/02 06:35:34;;;;;;;;;4.00;4.00;;;;;19.88;43.49;100884.02;110217;1250;20178;-41
2023/06/02 06:38:03;;;;;;;;;6.00;6.00;;;;;19.90;43.73;100889.08;110182;1266;20501;-41
2023/06/02 06:40:31;;;;;;;;;4.00;4.00;;;;;19.79;43.89;100883.56;110216;1250;19695;-40
2023/06/02 06:42:58;;;;;;;;;6.00;6.00;;;;;19.65;44.02;100890.11;110257;1250;18668;-41
2023/06/02 06:45:26;;;;;;;;;6.00;6.00;;;;;19.67;44.24;100893.05;110271;1254;19541;-40
2023/06/02 06:47:53;;;;;;;;;6.00;6.00;;;;;19.79;43.83;100896.75;110250;1250;20047;-40
2023/06/02 06:50:20;;;;;;;;;4.00;4.00;;;;;19.68;44.06;100896.21;110241;1259;20170;-40
2023/06/02 06:52:50;;;;;;;;;6.00;5.00;;;;;19.60;44.06;100901.04;110257;1265;20797;-40
2023/06/02 06:55:17;;;;;;;;;4.00;4.00;;;;;19.64;43.83;100901.88;110196;1265;18617;-41
2023/06/02 06:57:44;;;;;;;;;6.00;5.00;;;;;19.66;43.90;100908.17;110195;1265;22331;-40
2023/06/02 07:00:12;;;;;;;;;7.00;7.00;;;;;19.73;43.71;100914.98;110246;1257;22865;-41
2023/06/02 07:02:39;;;;;;;;;7.00;7.00;;;;;19.79;43.73;100913.17;110231;1250;20935;-40
2023/06/02 07:05:07;;;;;;;;;7.00;7.00;;;;;19.74;43.80;100916.42;110216;1265;22709;-43
2023/06/02 07:07:34;;;;;;;;;7.00;7.00;;;;;19.79;43.69;100920.68;110154;1250;20763;-40
2023/06/02 07:10:02;;;;;;;;;7.00;6.33;;;;;19.75;43.75;100924.75;110130;1264;18566;-40
2023/06/02 07:12:29;;;;;;;;;6.00;4.00;;;;;19.66;43.94;100921.09;110075;1265;18949;-40
2023/06/02 07:14:57;;;;;;;;;6.00;6.00;;;;;19.65;44.05;100921.83;110092;1264;19716;-41
2023/06/02 07:17:24;;;;;;;;;7.00;7.00;;;;;19.67;43.95;100923.06;110071;1264;19717;-40
2023/06/02 07:19:52;;;;;;;;;4.00;4.00;;;;;19.75;43.86;100928.05;110109;1249;23903;-40
2023/06/02 07:22:19;;;;;;;;;4.00;4.00;;;;;19.70;44.06;100927.90;110199;1265;19798;-40
2023/06/02 07:24:46;;;;;;;;;7.00;7.00;;;;;19.60;44.20;100926.27;110250;1264;18401;-40
2023/06/02 07:27:14;;;;;;;;;4.00;4.00;;;;;19.55;44.24;100930.96;110223;1265;18768;-40
2023/06/02 07:29:42;;;;;;;;;4.00;4.00;;;;;19.52;44.44;100935.73;110238;1250;19560;-40
2023/06/02 07:32:09;;;;;;;;;8.00;7.00;;;;;19.45;44.64;100942.66;110255;1265;19961;-41
2023/06/02 07:34:37;;;;;;;;;4.00;4.00;;;;;19.65;44.33;100946.95;110224;1265;19911;-41
2023/06/02 07:37:04;;;;;;;;;6.00;6.00;;;;;19.73;44.28;100944.91;110175;1250;21565;-40
2023/06/02 07:39:32;;;;;;;;;8.00;8.00;;;;;19.65;44.44;100954.02;110202;1264;18302;-40
2023/06/02 07:41:59;;;;;;;;;7.00;7.00;;;;;19.61;44.71;100952.95;110146;1265;18717;-39
2023/06/02 07:44:26;;;;;;;;;6.00;6.00;;;;;19.40;44.83;100956.73;110166;1265;21013;-40
2023/06/02 07:46:54;;;;;;;;;6.00;6.00;;;;;19.45;44.94;100959.31;110229;1265;19619;-38
2023/06/02 07:49:21;;;;;;;;;4.00;4.00;;;;;19.72;44.47;100962.48;110231;1251;20079;-39
2023/06/02 07:51:49;;;;;;;;;4.00;4.00;;;;;20.18;43.81;100960.55;110202;1265;20958;-38
2023/06/02 07:54:16;;;;;;;;;6.00;6.00;;;;;20.49;43.20;100966.20;110183;1265;22998;-41
2023/06/02 07:56:44;;;;;;;;;4.00;4.00;;;;;20.72;43.17;100970.42;110219;1265;18657;-39
2023/06/02 07:59:12;;;;;;;;;6.00;4.00;;;;;20.87;43.34;100973.05;110184;1251;20691;-43
2023/06/02 08:01:39;;;;;;;;;4.00;4.00;;;;;20.96;42.84;100978.27;110185;1265;22651;-41
2023/06/02 08:04:07;;;;;;;;;3.00;3.00;;;;;21.03;42.72;100973.38;110206;1257;23256;-40
2023/06/02 08:06:35;;;;;;;;;4.00;2.00;;;;;21.13;42.68;100981.46;110235;1265;19445;-39
2023/06/02 08:09:03;;;;;;;;;4.00;2.00;;;;;21.20;42.66;100985.17;110226;1251;18579;-39
2023/06/02 08:11:30;;;;;;;;;5.00;5.00;;;;;21.26;42.63;100986.98;110198;1251;20172;-38
2023/06/02 08:13:58;;;;;;;;;3.00;3.00;;;;;21.32;42.49;100990.27;110228;1265;19661;-40
2023/06/02 08:16:25;;;;;;;;;4.00;4.00;;;;;21.37;42.31;100993.05;110223;1265;18590;-38
2023/06/02 08:18:52;;;;;;;;;4.50;4.00;;;;;20.95;42.15;100999.65;110219;1266;20386;-39
2023/06/02 08:21:20;;;;;;;;;5.50;5.50;;;;;20.56;41.86;101002.33;110273;1251;21078;-40
2023/06/02 08:23:47;;;;;;;;;7.00;5.00;;;;;20.10;42.03;101001.90;110214;1250;20073;-39
2023/06/02 08:26:15;;;;;;;;;7.00;7.00;;;;;19.96;42.17;101000.98;110223;1264;18967;-39
2023/06/02 08:28:45;;;;;;;;;10.00;10.00;;;;;19.99;42.20;100999.80;110015;1266;20526;-39
2023/06/02 08:31:13;;;;;;;;;9.00;9.00;;;;;20.02;42.17;100999.83;110205;1265;18811;-40
2023/06/02 08:33:42;;;;;;;;;7.00;7.00;;;;;20.38;41.53;101001.22;110151;1265;18622;-39
2023/06/02 08:36:11;;;;;;;;;5.50;5.50;;;;;20.72;41.10;101001.09;110195;1250;20909;-38
2023/06/02 08:38:40;;;;;;;;;7.00;7.00;;;;;20.94;40.66;101000.73;110159;1251;22514;-39
2023/06/02 08:41:07;;;;;;;;;5.00;5.00;;;;;21.10;40.66;100998.64;110195;1257;21533;-39
2023/06/02 08:43:35;;;;;;;;;7.00;5.00;;;;;21.22;40.34;100999.69;110176;1251;20815;-37
2023/06/02 08:46:02;;;;;;;;;7.00;6.00;;;;;21.30;40.35;101006.16;110174;1250;19867;-40
2023/06/02 08:48:31;;;;;;;;;7.00;7.00;;;;;21.37;40.51;101004.68;110174;1250;20269;-38
2023/06/02 08:50:59;;;;;;;;;5.00;5.00;;;;;21.41;40.42;101006.05;110242;1265;20968;-40
2023/06/02 08:53:26;;;;;;;;;7.00;5.00;;;;;21.44;40.52;101007.48;110208;1250;22190;-39
2023/06/02 08:55:54;;;;;;;;;5.00;5.00;;;;;21.47;40.35;101010.49;110257;1265;20136;-39
2023/06/02 08:58:21;;;;;;;;;5.00;5.00;;;;;21.51;40.45;101016.38;110233;1265;23854;-37
2023/06/02 09:00:49;;;;;;;;;4.00;4.00;;;;;21.53;40.66;101015.55;110192;1250;19969;-40
2023/06/02 09:03:17;;;;;;;;;4.50;4.50;;;;;21.57;40.80;101018.84;110115;1265;20315;-40
2023/06/02 09:05:44;;;;;;;;;4.00;4.00;;;;;21.61;41.26;101021.19;110275;1265;20833;-39
2023/06/02 09:08:12;;;;;;;;;5.00;4.00;;;;;21.64;41.62;101027.05;110150;1265;19537;-40
2023/06/02 09:10:41;;;;;;;;;4.00;4.00;;;;;21.67;41.92;101028.61;110246;1249;22271;-40
2023/06/02 09:13:09;;;;;;;;;2.00;2.00;;;;;21.69;42.05;101030.84;110240;1250;20941;-41
2023/06/02 09:15:36;;;;;;;;;4.00;4.00;;;;;21.53;41.89;101027.77;110171;1265;18495;-41
2023/06/02 09:18:04;;;;;;;;;5.00;4.00;;;;;20.60;41.54;101030.85;110212;1266;18601;-40
2023/06/02 09:20:31;;;;;;;;;5.00;4.00;;;;;20.23;41.29;101034.42;110253;1250;19668;-40
2023/06/02 09:22:59;;;;;;;;;4.00;4.00;;;;;20.13;41.02;101039.87;110248;1265;19561;-39
2023/06/02 09:25:26;;;;;;;;;4.00;4.00;;;;;20.19;40.23;101034.81;110196;1251;20909;-41
2023/06/02 09:27:54;;;;;;;;;6.50;6.00;;;;;20.20;40.05;101034.20;110197;1265;22815;-41
2023/06/02 09:30:21;;;;;;;;;9.00;7.00;;;;;20.15;39.97;101037.09;110189;1265;18258;-40
2023/06/02 09:32:49;;;;;;;;;7.00;6.00;;;;;20.13;39.33;101040.02;110200;1264;18996;-41
2023/06/02 09:35:16;;;;;;;;;4.00;4.00;;;;;19.99;39.37;101042.27;110221;1257;19935;-44
2023/06/02 09:37:45;;;;;;;;;4.00;3.33;;;;;20.02;38.85;101042.30;110283;1250;19699;-40
2023/06/02 09:40:12;;;;;;;;;5.00;5.00;;;;;20.04;37.96;101040.83;110235;1250;20407;-41
2023/06/02 09:42:40;;;;;;;;;6.00;6.00;;;;;19.99;37.86;101046.80;110234;1265;19246;-40
2023/06/02 09:45:07;;;;;;;;;4.00;4.00;;;;;19.95;37.66;101047.95;110195;1264;19878;-41
2023/06/02 09:47:35;;;;;;;;;3.00;3.00;;;;;19.93;37.64;101055.95;110224;1264;19332;-41
2023/06/02 09:50:03;;;;;;;;;3.00;3.00;;;;;19.97;37.55;101056.39;110283;1249;22137;-41
2023/06/02 09:52:30;;;;;;;;;3.00;3.00;;;;;19.97;37.86;101057.44;110308;1265;18407;-38
2023/06/02 09:54:58;;;;;;;;;4.00;4.00;;;;;20.00;37.78;101061.94;110198;1265;19057;-39
2023/06/02 09:57:25;;;;;;;;;4.00;4.00;;;;;20.07;38.75;101054.27;110239;1265;19764;-41
2023/06/02 09:59:52;;;;;;;;;3.00;3.00;;;;;20.05;38.33;101061.98;110173;1250;19568;-39
2023/06/02 10:02:20;;;;;;;;;3.00;3.00;;;;;20.09;37.67;101061.33;110166;1251;20286;-39
2023/06/02 10:04:47;;;;;;;;;9.50;9.50;;;;;20.08;37.28;101070.67;110239;1264;20724;-39
2023/06/02 10:07:15;;;;;;;;;9.00;9.00;;;;;20.10;36.33;101067.79;110273;1265;18334;-38
2023/06/02 10:09:42;;;;;;;;;9.00;7.00;;;;;20.05;35.93;101078.48;110226;1250;19902;-39
2023/06/02 10:12:10;;;;;;;;;7.00;6.00;;;;;20.03;35.97;101074.63;110268;1251;20909;-39
2023/06/02 10:14:37;;;;;;;;;4.00;4.00;;;;;20.11;35.80;101067.48;110211;1265;19808;-40
2023/06/02 10:17:05;;;;;;;;;5.33;4.00;;;;;20.16;35.79;101061.65;110211;1265;20856;-39
2023/06/02 10:19:32;;;;;;;;;4.00;3.00;;;;;20.24;35.69;101056.45;110268;1251;22629;-39
2023/06/02 10:22:00;;;;;;;;;3.00;3.00;;;;;20.22;35.56;101071.50;110269;1265;19675;-39
2023/06/02 10:24:28;;;;;;;;;4.00;4.00;;;;;20.18;35.23;101070.92;110274;1265;20068;-40
2023/06/02 10:26:55;;;;;;;;;3.00;3.00;;;;;20.17;35.04;101069.68;110236;1250;21102;-38
2023/06/02 10:29:24;;;;;;;;;9.00;4.00;;;;;20.22;34.73;101068.00;110220;1250;19577;-39
2023/06/02 10:31:51;;;;;;;;;3.00;3.00;;;;;20.32;34.62;101063.33;110293;1265;19970;-39
2023/06/02 10:34:19;;;;;;;;;6.00;4.00;;;;;20.35;34.42;101060.63;110246;1265;19377;-40
2023/06/02 10:36:46;;;;;;;;;3.50;3.00;;;;;20.36;34.24;101068.02;110260;1250;20078;-40
2023/06/02 10:39:14;;;;;;;;;3.00;3.00;;;;;20.40;34.03;101070.06;110236;1264;20324;-39
2023/06/02 10:41:41;;;;;;;;;3.00;3.00;;;;;20.32;33.93;101075.48;110113;1249;21051;-39
2023/06/02 10:44:09;;;;;;;;;3.00;3.00;;;;;20.32;33.64;101070.30;110153;1264;18439;-39
2023/06/02 10:46:36;;;;;;;;;5.00;4.00;;;;;20.28;33.53;101079.73;110270;1250;20287;-38
2023/06/02 10:49:04;;;;;;;;;3.00;3.00;;;;;20.22;33.32;101090.77;110248;1265;19396;-39
2023/06/02 10:51:31;;;;;;;;;3.00;3.00;;;;;20.32;33.54;101085.65;110231;1251;22705;-43
2023/06/02 10:54:01;;;;;;;;;4.00;3.00;;;;;20.35;33.43;101080.66;110186;1264;19973;-39
2023/06/02 10:56:30;;;;;;;;;4.00;4.00;;;;;20.38;33.60;101087.58;110217;1249;21328;-39
2023/06/02 10:58:57;;;;;;;;;3.00;3.00;;;;;20.39;33.66;101081.46;110230;1265;18339;-41
2023/06/02 11:01:24;;;;;;;;;1.00;1.00;;;;;20.45;33.53;101088.46;110240;1265;19010;-39
2023/06/02 11:03:52;;;;;;;;;3.00;3.00;;;;;20.55;33.45;101092.31;110242;1264;22881;-39
2023/06/02 11:06:19;;;;;;;;;4.00;4.00;;;;;20.51;33.38;101090.66;110251;1250;19568;-39
2023/06/02 11:08:47;;;;;;;;;3.00;3.00;;;;;20.28;32.86;101086.09;110246;1265;19285;-41
2023/06/02 11:11:15;;;;;;;;;4.00;4.00;;;;;20.26;32.82;101096.64;110280;1260;21553;-39
2023/06/02 11:13:42;;;;;;;;;4.00;4.00;;;;;20.32;33.00;101089.16;110276;1265;18534;-42
2023/06/02 11:16:10;;;;;;;;;4.00;4.00;;;;;20.40;32.97;101092.83;110250;1249;21718;-40
2023/06/02 11:18:38;;;;;;;;;3.33;3.00;;;;;20.27;32.93;101098.74;110279;1264;22828;-40